Time;durP1;ratioP1;P1;durP2;ratioP2;P2;SDS_P1;SDS_P2;PMS_P1;PMS_P2;Temp;Humidity;BMP_temperature;BMP_pressure;BME280_temperature;BME280_humidity;BME280_pressure;Samples;Min_cycle;Max_cycle;Signal;HPM_P1;HPM_P2
2022/11/03 10:04:41;;;;;;;36.38;23.98;;;;;;;20.56;63.20;101578.59;5016861;27;20771;-75
2022/11/03 10:07:09;;;;;;;35.25;24.15;;;;;;;20.57;63.25;101570.38;5000608;28;20054;-74
2022/11/03 10:09:42;;;;;;;34.75;21.42;;;;;;;20.58;62.95;101566.72;5010552;28;20046;-74
2022/11/03 10:12:09;;;;;;;34.13;22.63;;;;;;;20.59;63.00;101567.59;5010577;28;20046;-74
2022/11/03 10:14:36;;;;;;;36.78;23.13;;;;;;;20.60;62.90;101566.59;5006041;28;20051;-74
2022/11/03 10:17:05;;;;;;;34.03;23.08;;;;;;;20.61;62.97;101563.78;4990071;28;20073;-76
2022/11/03 10:19:32;;;;;;;34.85;22.50;;;;;;;20.61;63.00;101558.41;4990834;28;20479;-75
2022/11/03 10:21:59;;;;;;;33.00;21.63;;;;;;;20.62;62.81;101544.00;4990671;28;20047;-75
2022/11/03 10:24:27;;;;;;;32.53;21.10;;;;;;;20.63;62.80;101548.38;4990944;28;20049;-76
2022/11/03 10:26:54;;;;;;;30.27;21.42;;;;;;;20.63;62.95;101547.53;4989525;28;20047;-78
2022/11/03 10:29:22;;;;;;;32.75;22.27;;;;;;;20.64;62.75;101547.41;4990636;28;20059;-74
2022/11/03 10:31:52;;;;;;;41.45;21.70;;;;;;;20.65;62.97;101541.03;4990520;28;20053;-73
2022/11/03 10:34:33;;;;;;;35.67;22.42;;;;;;;20.66;62.81;101529.31;4990816;28;20053;-72
2022/11/03 10:37:23;;;;;;;29.65;20.35;;;;;;;20.66;62.74;101526.63;4990632;28;20047;-72
2022/11/03 10:39:53;;;;;;;30.10;20.35;;;;;;;20.68;62.72;101521.97;4989340;28;20047;-73
2022/11/03 10:42:29;;;;;;;29.27;20.27;;;;;;;20.67;62.78;101519.41;4990436;28;20049;-73
2022/11/03 10:45:16;;;;;;;34.17;22.08;;;;;;;20.68;62.65;101516.56;4990619;28;20046;-77
2022/11/03 10:47:43;;;;;;;29.48;20.20;;;;;;;20.69;62.69;101512.91;4988375;28;20042;-73
2022/11/03 10:50:25;;;;;;;30.10;20.13;;;;;;;20.70;62.65;101513.75;4989360;28;20576;-74
2022/11/03 10:52:53;;;;;;;29.08;19.85;;;;;;;20.70;62.64;101506.56;4990405;28;20065;-73
2022/11/03 10:55:23;;;;;;;29.02;19.52;;;;;;;20.70;62.52;101505.69;4990410;28;20049;-73
2022/11/03 10:57:56;;;;;;;30.58;20.48;;;;;;;20.70;62.43;101503.88;4990613;28;20054;-73
2022/11/03 11:00:24;;;;;;;28.48;19.85;;;;;;;20.71;62.59;101500.19;4990107;28;20051;-73
2022/11/03 11:02:59;;;;;;;26.38;18.92;;;;;;;20.71;62.70;101492.13;4990223;28;20065;-73
2022/11/03 11:05:26;;;;;;;27.90;19.70;;;;;;;20.73;62.31;101508.97;4990058;28;20053;-75
2022/11/03 11:07:54;;;;;;;26.63;19.25;;;;;;;20.72;62.30;101493.81;4989763;28;20051;-73
2022/11/03 11:10:24;;;;;;;24.98;18.83;;;;;;;20.72;62.33;101487.59;4988951;28;20054;-72
2022/11/03 11:13:12;;;;;;;27.38;19.80;;;;;;;20.72;62.30;101493.81;4988680;28;20057;-73
2022/11/03 11:15:45;;;;;;;29.17;19.83;;;;;;;20.72;62.29;101488.44;4979492;28;20051;-73
2022/11/03 11:18:27;;;;;;;27.33;18.98;;;;;;;20.73;62.35;101487.44;4976774;28;20062;-74
2022/11/03 11:21:21;;;;;;;27.88;20.50;;;;;;;20.73;62.32;101484.75;4976889;28;20062;-72
2022/11/03 11:23:48;;;;;;;;;;;;;;;20.72;62.26;101483.06;4977248;28;20053;-73
2022/11/03 11:26:28;;;;;;;28.83;18.60;;;;;;;20.73;62.21;101471.31;4976526;28;19929;-72
2022/11/03 11:29:34;;;;;;;24.98;18.75;;;;;;;20.72;62.47;101466.91;4977051;28;20058;-72
2022/11/03 11:32:40;;;;;;;26.02;18.02;;;;;;;20.74;62.38;101472.16;4936682;29;20503;-73
2022/11/03 11:35:10;;;;;;;25.25;17.17;;;;;;;20.73;62.27;101471.31;4936226;29;20047;-73
2022/11/03 11:37:38;;;;;;;27.35;18.92;;;;;;;20.74;62.33;101458.72;4919817;29;20156;-74
2022/11/03 11:40:13;;;;;;;28.20;18.63;;;;;;;20.74;62.25;101461.41;4936550;29;20056;-73
2022/11/03 11:43:02;;;;;;;28.50;18.20;;;;;;;20.74;62.33;101464.97;4935961;29;20107;-72
2022/11/03 11:46:07;;;;;;;27.77;17.80;;;;;;;20.73;62.20;101457.84;4936064;29;20119;-72
2022/11/03 11:48:35;;;;;;;26.88;18.42;;;;;;;20.74;62.27;101448.81;4919468;29;20056;-74
2022/11/03 11:51:03;;;;;;;22.90;17.10;;;;;;;20.75;62.19;101449.69;4935228;29;20369;-74
2022/11/03 11:53:36;;;;;;;24.10;17.40;;;;;;;20.76;62.10;101450.53;4936071;29;20412;-73
2022/11/03 11:56:04;;;;;;;22.70;16.48;;;;;;;20.76;62.03;101439.75;4935488;29;20419;-73
2022/11/03 11:58:40;;;;;;;20.75;15.48;;;;;;;20.76;62.14;101439.75;4935611;29;20051;-73
2022/11/03 12:01:22;;;;;;;23.05;16.95;;;;;;;20.76;61.76;101434.38;4936022;29;20056;-74
2022/11/03 12:03:52;;;;;;;22.75;16.33;;;;;;;20.77;61.91;101431.56;4935375;29;20052;-75
2022/11/03 12:06:37;;;;;;;22.92;17.40;;;;;;;20.78;61.98;101421.63;4935507;29;20051;-73
2022/11/03 12:09:06;;;;;;;24.10;18.05;;;;;;;20.79;63.44;101436.81;4944721;28;20059;-73
2022/11/03 12:12:01;;;;;;;28.95;21.23;;;;;;;20.78;63.52;101418.94;4976205;28;20054;-76
2022/11/03 12:14:36;;;;;;;28.55;21.13;;;;;;;20.74;63.46;101416.53;4975227;28;20053;-74
2022/11/03 12:17:16;;;;;;;33.28;23.40;;;;;;;20.73;63.42;101413.94;4975179;28;20410;-74
2022/11/03 12:19:45;;;;;;;35.53;24.75;;;;;;;20.71;63.42;101411.41;4974287;28;20054;-74
2022/11/03 12:22:28;;;;;;;33.22;23.58;;;;;;;20.69;63.41;101407.97;4975323;28;20054;-74
2022/11/03 12:25:03;;;;;;;32.88;24.48;;;;;;;20.68;63.25;101402.72;4976314;28;20043;-74
2022/11/03 12:27:32;;;;;;;29.40;22.70;;;;;;;20.66;63.25;101400.19;4974915;28;20054;-74
2022/11/03 12:30:03;;;;;;;37.55;24.90;;;;;;;20.64;63.34;101377.06;4975241;28;20078;-74
2022/11/03 12:32:31;;;;;;;31.35;23.08;;;;;;;20.62;63.36;101369.13;4975676;28;20050;-74
2022/11/03 12:35:03;;;;;;;33.58;22.55;;;;;;;20.62;63.70;101362.88;4976041;28;20047;-74
2022/11/03 12:37:30;;;;;;;32.35;23.73;;;;;;;20.62;64.51;101362.88;4975633;28;20054;-74
2022/11/03 12:39:57;;;;;;;30.77;22.77;;;;;;;20.62;64.21;101358.38;4975715;28;20054;-74
2022/11/03 12:42:24;;;;;;;31.48;23.15;;;;;;;20.61;64.61;101361.16;4974618;28;20053;-73
2022/11/03 12:44:52;;;;;;;32.28;22.73;;;;;;;20.61;65.06;101363.84;4975567;28;20407;-74
2022/11/03 12:47:19;;;;;;;35.50;23.92;;;;;;;20.61;65.01;101369.22;4975885;28;20510;-74
2022/11/03 12:49:47;;;;;;;33.30;22.33;;;;;;;20.61;65.32;101358.47;4974980;28;20042;-71
2022/11/03 12:52:14;;;;;;;32.20;22.27;;;;;;;20.62;66.53;101357.47;4975073;28;20039;-73
2022/11/03 12:54:42;;;;;;;28.85;21.58;;;;;;;20.63;67.13;101352.00;4974475;28;20047;-78
2022/11/03 12:57:09;;;;;;;28.08;20.80;;;;;;;20.64;66.84;101345.63;4975721;28;20051;-74
2022/11/03 12:59:36;;;;;;;27.70;19.30;;;;;;;20.66;67.66;101332.91;4973839;28;20054;-75
2022/11/03 13:02:04;;;;;;;26.23;19.33;;;;;;;20.66;67.72;101327.53;4973665;28;20070;-73
2022/11/03 13:04:31;;;;;;;26.02;18.38;;;;;;;20.68;68.08;101320.16;4974249;28;20418;-74
2022/11/03 13:06:58;;;;;;;23.00;18.25;;;;;;;20.68;67.74;101305.88;4974672;28;20051;-73
2022/11/03 13:09:26;;;;;;;24.33;17.77;;;;;;;20.69;68.04;101311.09;4974187;28;20058;-74
2022/11/03 13:14:39;;;;;;;24.58;17.88;;;;;;;20.70;68.39;101287.75;4974935;28;20061;-73
2022/11/03 13:17:13;;;;;;;22.10;16.13;;;;;;;20.70;68.38;101294.00;4972827;28;20050;-74
2022/11/03 13:19:41;;;;;;;23.52;16.65;;;;;;;20.70;68.51;101285.94;4974325;28;20061;-74
2022/11/03 13:22:08;;;;;;;25.85;17.13;;;;;;;20.72;68.47;101288.47;4972967;28;20047;-73
2022/11/03 13:24:35;;;;;;;22.83;14.77;;;;;;;20.71;68.53;101276.88;4974719;28;20039;-75
2022/11/03 13:27:03;;;;;;;19.38;15.52;;;;;;;20.72;68.50;101273.19;4974575;28;20426;-73
2022/11/03 13:29:30;;;;;;;24.00;16.75;;;;;;;20.72;68.69;101273.19;4974182;28;20046;-73
2022/11/03 13:32:05;;;;;;;19.23;14.85;;;;;;;20.73;68.64;101269.50;4974697;28;20054;-74
2022/11/03 13:34:32;;;;;;;19.55;14.75;;;;;;;20.73;68.48;101274.88;4974509;28;20483;-74
2022/11/03 13:37:00;;;;;;;19.67;15.30;;;;;;;20.73;68.61;101264.13;4974051;28;20051;-75
2022/11/03 13:39:27;;;;;;;21.63;15.82;;;;;;;20.74;68.43;101256.91;4973783;28;20063;-74
2022/11/03 13:41:55;;;;;;;19.40;14.05;;;;;;;20.74;68.64;101255.09;4972562;28;20058;-74
2022/11/03 13:44:22;;;;;;;21.25;14.57;;;;;;;20.75;68.84;101250.56;4974398;28;20098;-74
2022/11/03 13:46:50;;;;;;;22.27;15.48;;;;;;;20.74;68.70;101249.72;4974064;28;20046;-74
2022/11/03 13:49:17;;;;;;;18.38;13.93;;;;;;;20.75;68.75;101247.88;4974455;28;20487;-75
2022/11/03 13:52:04;;;;;;;18.58;13.55;;;;;;;20.76;68.53;101244.19;4973505;28;20420;-74
2022/11/03 13:54:32;;;;;;;17.75;14.18;;;;;;;20.76;68.45;101240.66;4973859;28;20046;-75
2022/11/03 13:57:20;;;;;;;18.38;13.88;;;;;;;20.76;68.52;101244.19;4972606;28;20396;-74
2022/11/03 14:00:12;;;;;;;16.65;14.02;;;;;;;20.76;68.65;101230.75;4974396;28;20046;-74
2022/11/03 14:02:40;;;;;;;18.93;14.13;;;;;;;20.76;68.09;101232.59;4974483;28;20069;-73
2022/11/03 14:05:27;;;;;;;18.10;12.77;;;;;;;20.77;68.05;101235.13;4972716;28;20061;-74
2022/11/03 14:07:54;;;;;;;17.58;14.23;;;;;;;20.77;68.46;101224.38;4974660;28;20050;-74
2022/11/03 14:10:22;;;;;;;17.55;13.55;;;;;;;20.77;68.25;101218.97;4974023;28;20058;-73
2022/11/03 14:12:49;;;;;;;16.05;13.05;;;;;;;20.77;67.97;101221.66;4974633;28;20046;-73
2022/11/03 14:22:04;;;;;;;18.42;14.00;;;;;;;20.80;67.54;101207.13;5071198;28;20379;-75
2022/11/03 14:24:32;;;;;;;16.98;14.02;;;;;;;20.81;67.97;101208.81;5070088;28;20048;-79
2022/11/03 14:26:59;;;;;;;17.75;13.35;;;;;;;20.81;67.55;101200.75;5071126;28;20052;-76
2022/11/03 14:29:26;;;;;;;16.33;12.80;;;;;;;20.80;67.78;101197.19;5071246;28;20068;-76
2022/11/03 14:31:53;;;;;;;16.92;12.77;;;;;;;20.81;67.85;101198.03;5071283;28;20045;-76
2022/11/03 14:34:21;;;;;;;17.95;12.30;;;;;;;20.81;67.48;101182.75;5071834;28;20071;-75
2022/11/03 14:36:48;;;;;;;17.35;12.88;;;;;;;20.81;67.64;101184.59;5071601;28;20045;-76
2022/11/03 14:39:16;;;;;;;18.23;12.50;;;;;;;20.81;67.49;101180.06;5071470;28;20041;-74
2022/11/03 14:44:39;;;;;;;18.27;13.13;;;;;;;20.80;67.41;101170.28;5070220;28;20051;-77
2022/11/03 14:47:14;;;;;;;16.33;11.57;;;;;;;20.81;67.36;101172.00;5071399;28;20055;-76
2022/11/03 14:49:41;;;;;;;16.55;12.60;;;;;;;20.80;67.42;101169.44;5070376;28;20403;-76
2022/11/03 14:52:09;;;;;;;16.45;12.70;;;;;;;20.81;67.26;101176.53;5068673;28;20053;-76
2022/11/03 14:54:36;;;;;;;16.50;12.43;;;;;;;20.81;67.08;101176.53;5050696;28;20049;-75
2022/11/03 14:57:04;;;;;;;13.80;11.50;;;;;;;20.81;67.12;101173.81;5049805;28;20056;-76
2022/11/03 14:59:31;;;;;;;16.15;11.90;;;;;;;20.81;66.76;101165.75;5049615;28;20041;-77
2022/11/03 15:02:02;;;;;;;15.40;12.38;;;;;;;20.81;66.88;101172.00;5050406;28;20045;-77
2022/11/03 15:04:30;;;;;;;18.77;12.98;;;;;;;20.81;66.86;101166.59;5050680;28;20053;-75
2022/11/03 15:06:57;;;;;;;19.08;13.00;;;;;;;20.81;66.93;101166.59;5051680;28;20049;-75
2022/11/03 15:09:30;;;;;;;15.68;12.88;;;;;;;20.81;67.05;101166.59;5070632;28;20495;-75
2022/11/03 15:11:57;;;;;;;19.55;13.85;;;;;;;20.81;66.90;101160.38;5068278;28;20053;-74
2022/11/03 15:14:24;;;;;;;18.92;12.70;;;;;;;20.82;66.87;101154.00;5069899;28;20071;-76
2022/11/03 15:16:51;;;;;;;16.45;12.88;;;;;;;20.81;66.79;101157.69;5069075;28;20044;-76
2022/11/03 15:19:19;;;;;;;18.63;13.18;;;;;;;20.81;66.61;101147.78;5070433;28;20384;-78
2022/11/03 15:21:46;;;;;;;14.40;12.43;;;;;;;20.81;66.92;101152.31;5069218;28;20044;-75
2022/11/03 15:24:13;;;;;;;18.08;13.63;;;;;;;20.81;66.55;101149.63;5069793;28;20047;-75
2022/11/03 15:27:01;;;;;;;15.40;12.02;;;;;;;20.81;66.20;101147.78;5069394;28;20050;-77
2022/11/03 15:29:28;;;;;;;18.67;12.65;;;;;;;20.81;66.53;101142.38;5069429;28;20048;-75
2022/11/03 15:31:55;;;;;;;15.45;12.57;;;;;;;20.81;66.44;101146.91;5065000;28;20711;-75
2022/11/03 15:34:22;;;;;;;15.15;12.52;;;;;;;20.81;66.28;101150.47;5056009;28;20488;-75
2022/11/03 15:36:49;;;;;;;18.88;12.60;;;;;;;20.81;66.08;101146.91;5055830;28;20045;-76
2022/11/03 15:39:17;;;;;;;15.18;11.98;;;;;;;20.80;66.15;101143.38;5056117;28;20044;-75
2022/11/03 15:41:44;;;;;;;15.98;12.20;;;;;;;20.82;66.28;101132.47;5055515;28;20056;-74
2022/11/03 15:44:11;;;;;;;18.58;12.98;;;;;;;20.81;66.22;101130.78;5055397;28;20391;-74
2022/11/03 15:46:38;;;;;;;17.08;12.52;;;;;;;20.81;66.13;101120.88;5055515;28;20045;-75
2022/11/03 15:49:06;;;;;;;16.90;12.65;;;;;;;20.82;65.85;101132.47;5055881;28;20049;-75
2022/11/03 15:51:33;;;;;;;17.50;13.07;;;;;;;20.83;65.65;101126.13;5055942;28;20044;-75
2022/11/03 15:54:01;;;;;;;17.23;13.25;;;;;;;20.81;65.94;101125.41;5041268;28;20045;-75
2022/11/03 15:56:29;;;;;;;19.58;12.82;;;;;;;20.82;66.04;101119.03;5034742;28;20057;-75
2022/11/03 15:58:56;;;;;;;17.85;10.80;;;;;;;20.81;65.74;101112.78;5035595;28;20049;-76
2022/11/03 16:01:23;;;;;;;15.43;12.32;;;;;;;20.83;65.71;101109.97;5035228;28;20048;-75
2022/11/03 16:03:51;;;;;;;22.48;14.75;;;;;;;20.83;65.43;101096.53;5036451;28;20056;-76
2022/11/03 16:06:19;;;;;;;22.50;15.85;;;;;;;20.83;65.35;101093.84;5033896;28;20064;-75
2022/11/03 16:09:06;;;;;;;24.23;15.23;;;;;;;20.82;65.11;101087.56;5035870;28;20049;-74
2022/11/03 16:11:34;;;;;;;17.20;13.43;;;;;;;20.82;65.07;101087.56;5036273;28;20042;-76
2022/11/03 16:14:01;;;;;;;17.77;12.45;;;;;;;20.82;64.85;101084.88;5035741;28;20045;-75
2022/11/03 16:16:28;;;;;;;17.42;13.25;;;;;;;20.82;64.83;101082.19;5035919;28;20045;-76
2022/11/03 16:18:55;;;;;;;19.42;13.18;;;;;;;20.82;64.87;101078.66;5034764;28;20416;-74
2022/11/03 16:21:23;;;;;;;19.05;14.00;;;;;;;20.81;64.88;101075.13;5034389;28;20049;-77
2022/11/03 16:23:55;;;;;;;19.48;13.43;;;;;;;20.82;64.82;101075.97;5036257;28;20484;-75
2022/11/03 16:26:23;;;;;;;17.65;14.15;;;;;;;20.81;64.80;101063.50;5034444;28;20057;-73
2022/11/03 16:28:50;;;;;;;19.00;12.82;;;;;;;20.81;64.87;101067.03;5036046;28;20050;-73
2022/11/03 16:31:17;;;;;;;17.00;13.30;;;;;;;20.82;64.75;101063.38;5036019;28;20042;-75
2022/11/03 16:33:45;;;;;;;16.38;11.95;;;;;;;20.82;64.63;101057.97;5035624;28;20049;-74
2022/11/03 16:36:12;;;;;;;17.80;13.23;;;;;;;20.81;64.63;101045.53;5035976;28;20469;-74
2022/11/03 16:38:39;;;;;;;18.60;13.27;;;;;;;20.81;64.56;101047.38;5036352;28;20042;-76
2022/11/03 16:41:07;;;;;;;19.15;13.43;;;;;;;20.81;64.38;101036.59;5035709;28;20041;-75
2022/11/03 16:43:34;;;;;;;18.13;14.15;;;;;;;20.82;64.54;101038.28;5035140;28;20072;-77
2022/11/03 16:46:02;;;;;;;21.73;14.88;;;;;;;20.82;64.78;101024.84;5034737;28;20049;-75
2022/11/03 16:48:29;;;;;;;19.63;14.35;;;;;;;20.81;64.57;101021.31;5035187;28;20045;-74
2022/11/03 16:50:57;;;;;;;23.88;14.85;;;;;;;20.81;64.55;101012.38;5035748;28;20049;-74
2022/11/03 16:53:24;;;;;;;19.25;14.02;;;;;;;20.81;64.52;101013.22;5035881;28;20053;-73
2022/11/03 16:55:51;;;;;;;19.60;13.02;;;;;;;20.81;64.27;101005.16;5034203;28;20488;-76
2022/11/03 16:58:19;;;;;;;22.83;14.13;;;;;;;20.82;64.14;101014.06;5035526;28;20065;-78
2022/11/03 17:00:46;;;;;;;18.52;13.60;;;;;;;20.81;64.38;101001.63;5035816;28;20472;-75
2022/11/03 17:03:14;;;;;;;20.05;14.38;;;;;;;20.81;64.34;100993.53;5034514;28;20108;-74
2022/11/03 17:05:41;;;;;;;20.60;14.27;;;;;;;20.82;64.23;100988.00;5035130;28;20049;-74
2022/11/03 17:08:08;;;;;;;19.17;13.65;;;;;;;20.82;64.32;100982.63;5039218;28;20072;-74
2022/11/03 17:10:56;;;;;;;17.88;13.45;;;;;;;20.82;64.28;100998.78;5054643;28;20408;-74
2022/11/03 17:13:23;;;;;;;20.17;14.20;;;;;;;20.82;64.29;100993.41;5053557;28;20396;-75
2022/11/03 17:15:50;;;;;;;20.15;13.65;;;;;;;20.81;64.38;100994.41;5053878;28;20049;-74
2022/11/03 17:18:18;;;;;;;18.77;13.35;;;;;;;20.82;64.05;100992.56;5053405;28;20052;-76
2022/11/03 17:20:45;;;;;;;16.17;13.15;;;;;;;20.83;64.04;100983.50;5053995;28;20056;-74
2022/11/03 17:23:13;;;;;;;20.02;13.35;;;;;;;20.82;64.00;100974.56;5054421;28;20041;-74
2022/11/03 17:25:40;;;;;;;19.50;14.20;;;;;;;20.83;63.97;100972.75;5054597;28;20049;-73
2022/11/03 17:28:08;;;;;;;22.98;14.70;;;;;;;20.82;64.04;100969.19;5055278;28;20045;-78
2022/11/03 17:30:38;;;;;;;19.77;14.32;;;;;;;20.81;63.79;100959.41;5053184;28;20053;-75
2022/11/03 17:33:15;;;;;;;20.90;14.60;;;;;;;20.83;63.81;100960.16;5053948;28;20052;-74
2022/11/03 17:35:45;;;;;;;19.67;14.27;;;;;;;20.82;63.86;100949.50;5054433;28;20049;-73
2022/11/03 17:38:15;;;;;;;20.48;14.25;;;;;;;20.82;63.94;100944.97;5054797;28;20055;-76
2022/11/03 17:40:46;;;;;;;21.25;13.95;;;;;;;20.82;63.52;100946.81;5052521;28;20044;-75
2022/11/03 17:43:21;;;;;;;19.30;13.40;;;;;;;20.83;64.00;100951.22;5053652;28;20159;-75
2022/11/03 17:45:49;;;;;;;18.48;12.93;;;;;;;20.84;64.43;100953.75;5054623;28;20052;-75
2022/11/03 17:48:17;;;;;;;23.00;13.68;;;;;;;20.84;64.31;100940.31;5054211;28;20048;-76
2022/11/03 17:50:52;;;;;;;18.50;13.30;;;;;;;20.84;63.80;100943.00;5053430;28;20488;-74
2022/11/03 17:53:21;;;;;;;21.85;13.73;;;;;;;20.85;63.77;100938.47;5053667;28;20119;-75
2022/11/03 17:55:50;;;;;;;20.13;12.82;;;;;;;20.85;63.96;100933.09;5045255;28;20041;-77
2022/11/03 17:58:38;;;;;;;18.45;13.93;;;;;;;20.85;64.41;100930.41;5033148;28;20149;-76
2022/11/03 18:01:20;;;;;;;24.80;14.75;;;;;;;20.84;63.75;100918.78;5034241;28;20088;-75
2022/11/03 18:03:47;;;;;;;19.83;13.38;;;;;;;20.83;63.62;100927.84;5034366;28;20456;-75
2022/11/03 18:06:17;;;;;;;20.83;14.63;;;;;;;20.84;63.42;100920.63;5044827;28;20411;-75
2022/11/03 18:08:47;;;;;;;21.17;13.95;;;;;;;20.85;63.58;100912.41;5054089;28;20045;-76
2022/11/03 18:14:12;;;;;;;26.00;15.55;;;;;;;20.85;63.88;100916.94;5038181;28;20041;-77
2022/11/03 18:16:42;;;;;;;18.92;13.27;;;;;;;20.85;64.15;100917.78;5033877;28;20041;-77
2022/11/03 18:19:14;;;;;;;18.33;12.43;;;;;;;20.86;64.22;100924.00;5033796;28;20046;-76
2022/11/03 18:21:42;;;;;;;21.02;15.13;;;;;;;20.86;64.09;100911.41;5033939;28;20064;-77
2022/11/03 18:24:12;;;;;;;24.92;16.35;;;;;;;20.86;63.87;100902.50;5033561;28;20045;-76
2022/11/03 18:26:39;;;;;;;22.63;14.02;;;;;;;20.86;63.77;100894.41;5041309;28;20045;-76
2022/11/03 18:29:07;;;;;;;21.23;14.38;;;;;;;20.85;63.72;100887.34;5053143;28;20053;-77
2022/11/03 18:31:36;;;;;;;21.38;13.73;;;;;;;20.85;63.92;100879.28;5054406;28;20045;-77
2022/11/03 18:34:09;;;;;;;17.25;12.40;;;;;;;20.86;64.15;100864.81;5054559;28;20049;-77
2022/11/03 18:36:36;;;;;;;18.73;11.82;;;;;;;20.86;64.41;100871.03;5054035;28;20072;-77
2022/11/03 18:39:04;;;;;;;20.40;13.63;;;;;;;20.86;64.56;100856.75;5053794;28;20048;-77
2022/11/03 18:41:40;;;;;;;22.15;15.02;;;;;;;20.86;64.67;100856.75;5052624;28;20049;-77
2022/11/03 18:44:15;;;;;;;20.88;13.25;;;;;;;20.86;64.76;100848.66;5054202;28;20041;-77
2022/11/03 18:46:43;;;;;;;18.77;13.05;;;;;;;20.86;64.98;100843.28;5054016;28;20048;-76
2022/11/03 18:49:11;;;;;;;18.77;14.18;;;;;;;20.86;64.97;100830.69;5053928;28;20049;-76
2022/11/03 18:51:40;;;;;;;17.75;12.50;;;;;;;20.87;64.94;100845.00;5056003;28;20056;-77
2022/11/03 18:54:13;;;;;;;17.63;12.68;;;;;;;20.87;64.80;100835.09;5053718;28;20045;-76
2022/11/03 18:56:41;;;;;;;17.38;13.07;;;;;;;20.88;64.84;100833.25;5040609;28;20376;-77
2022/11/03 18:59:19;;;;;;;17.60;12.93;;;;;;;20.88;65.00;100830.56;5033402;28;20425;-77
2022/11/03 19:01:52;;;;;;;17.50;12.73;;;;;;;20.89;65.01;100813.41;5032938;28;20056;-77
2022/11/03 19:04:30;;;;;;;21.55;13.93;;;;;;;20.88;64.74;100809.88;5036170;28;20064;-75
2022/11/03 19:07:02;;;;;;;24.02;14.25;;;;;;;20.90;64.85;100812.41;5034497;28;20042;-77
2022/11/03 19:09:37;;;;;;;22.90;14.13;;;;;;;20.88;64.97;100814.41;5032118;28;20052;-76
2022/11/03 19:12:05;;;;;;;22.08;14.15;;;;;;;20.90;64.97;100807.03;5057756;28;20052;-76
2022/11/03 19:14:38;;;;;;;25.45;15.23;;;;;;;20.91;65.41;100798.00;5057160;28;20049;-76
2022/11/03 19:17:14;;;;;;;22.58;14.82;;;;;;;20.89;65.35;100783.81;5057378;28;20515;-78
2022/11/03 19:19:52;;;;;;;21.20;14.25;;;;;;;20.87;65.25;100786.66;5056744;28;20060;-79
2022/11/03 19:22:21;;;;;;;25.60;15.10;;;;;;;20.89;65.35;100778.44;5056837;28;20045;-76
2022/11/03 19:24:49;;;;;;;24.92;15.98;;;;;;;20.89;65.59;100775.75;5057536;28;20056;-78
2022/11/03 19:27:19;;;;;;;23.70;15.27;;;;;;;20.89;65.46;100768.50;5058400;28;20049;-79
2022/11/03 19:29:47;;;;;;;24.42;14.60;;;;;;;20.88;65.57;100761.44;5058043;28;20052;-79
2022/11/03 19:32:32;;;;;;;29.45;16.67;;;;;;;20.88;65.53;100757.91;5058507;28;20507;-77
2022/11/03 19:35:07;;;;;;;25.60;15.98;;;;;;;20.89;65.56;100746.13;5057187;28;20388;-78
2022/11/03 19:37:35;;;;;;;22.52;16.20;;;;;;;20.88;65.56;100741.75;5058605;28;20492;-79
2022/11/03 19:40:07;;;;;;;27.45;16.67;;;;;;;20.88;65.47;100728.31;5059250;28;20049;-79
2022/11/03 19:42:38;;;;;;;26.48;15.63;;;;;;;20.87;65.54;100719.38;5058341;28;20041;-79
2022/11/03 19:45:11;;;;;;;21.58;15.98;;;;;;;20.87;65.31;100724.78;5058040;28;20041;-80
2022/11/03 19:47:58;;;;;;;24.75;15.45;;;;;;;20.87;65.64;100715.84;5058159;28;20045;-79
2022/11/03 19:50:47;;;;;;;25.30;15.68;;;;;;;20.88;65.47;100717.53;5057729;28;20037;-84
2022/11/03 19:53:22;;;;;;;23.52;15.02;;;;;;;20.87;65.55;100703.25;5059104;28;20056;-84
2022/11/03 19:55:49;;;;;;;20.40;14.63;;;;;;;20.87;65.49;100703.25;5059415;28;20056;-83
2022/11/03 19:58:24;;;;;;;26.35;15.02;;;;;;;20.88;65.50;100693.31;5043114;28;20040;-77
2022/11/03 20:00:53;;;;;;;25.65;16.25;;;;;;;20.88;65.45;100691.47;5036632;28;20054;-78
2022/11/03 20:03:21;;;;;;;19.10;13.82;;;;;;;20.87;65.49;100694.31;5037326;28;20037;-79
2022/11/03 20:05:55;;;;;;;24.35;15.18;;;;;;;20.87;65.43;100679.03;5037136;28;20042;-79
2022/11/03 20:08:25;;;;;;;22.42;14.60;;;;;;;20.88;65.58;100674.50;5037840;28;20041;-79
2022/11/03 20:10:53;;;;;;;22.88;14.80;;;;;;;20.88;65.46;100658.34;5047498;28;20041;-78
2022/11/03 20:13:23;;;;;;;24.15;15.68;;;;;;;20.88;65.53;100645.72;5039015;28;20491;-80
2022/11/03 20:15:52;;;;;;;24.83;15.15;;;;;;;20.88;65.58;100658.34;5053624;28;20408;-78
2022/11/03 20:18:27;;;;;;;25.08;15.68;;;;;;;20.88;65.61;100650.28;5056269;28;20044;-77
2022/11/03 20:20:55;;;;;;;23.70;13.88;;;;;;;20.89;65.50;100643.88;5056068;28;20075;-76
2022/11/03 20:23:28;;;;;;;20.80;14.20;;;;;;;20.89;65.68;100644.72;5055660;28;20041;-75
2022/11/03 20:25:56;;;;;;;23.77;14.55;;;;;;;20.89;65.78;100644.72;5055423;28;20429;-76
2022/11/03 20:28:29;;;;;;;21.45;13.93;;;;;;;20.89;65.77;100633.13;5037716;28;20049;-75
2022/11/03 20:30:59;;;;;;;;;;;;;;;20.89;65.85;100623.19;5036212;28;20045;-75
2022/11/03 20:33:27;;;;;;;23.67;15.88;;;;;;;20.89;65.73;100607.06;5035339;28;20288;-76
2022/11/03 20:35:55;;;;;;;25.80;15.38;;;;;;;20.90;65.83;100610.59;5035255;28;20056;-76
2022/11/03 20:38:25;;;;;;;22.88;16.02;;;;;;;20.89;65.79;100607.06;5035060;28;20053;-76
2022/11/03 20:40:57;;;;;;;21.40;15.13;;;;;;;20.90;65.54;100599.84;5047284;28;20037;-75
2022/11/03 20:43:37;;;;;;;25.07;17.53;;;;;;;20.89;65.52;100593.59;5044146;28;20045;-75
2022/11/03 20:46:17;;;;;;;21.73;16.20;;;;;;;20.90;65.42;100570.22;5055356;28;20053;-76
2022/11/03 20:48:44;;;;;;;23.92;15.90;;;;;;;20.91;65.53;100553.13;5039807;28;20052;-76
2022/11/03 20:51:16;;;;;;;25.13;17.60;;;;;;;20.90;65.37;100549.59;5035559;28;20416;-76
2022/11/03 20:53:44;;;;;;;27.77;16.75;;;;;;;20.90;65.35;100522.66;5035571;28;20047;-76
2022/11/03 20:56:17;;;;;;;24.83;17.60;;;;;;;20.90;65.26;100524.50;5035414;28;20054;-77
2022/11/03 20:58:46;;;;;;;27.15;17.52;;;;;;;20.89;65.18;100520.13;5034949;28;20511;-77
2022/11/03 21:01:18;;;;;;;25.98;17.80;;;;;;;20.91;65.24;100510.06;5041557;28;20048;-75
2022/11/03 21:03:46;;;;;;;23.35;15.88;;;;;;;20.91;65.45;100507.38;5054969;28;20040;-77
2022/11/03 21:06:31;;;;;;;20.05;15.82;;;;;;;20.91;65.19;100508.22;5046295;28;20053;-75
2022/11/03 21:08:58;;;;;;;20.90;14.57;;;;;;;20.91;65.56;100505.53;5035329;28;20053;-77
2022/11/03 21:11:29;;;;;;;24.13;16.05;;;;;;;20.92;65.42;100498.28;5054816;28;20052;-77
2022/11/03 21:14:17;;;;;;;22.25;16.05;;;;;;;20.90;65.59;100487.69;5055288;28;20045;-76
2022/11/03 21:22:17;;;;;;;24.80;15.50;;;;;;;20.92;65.57;100479.47;5055493;28;20052;-76
2022/11/03 21:25:27;;;;;;;21.42;14.55;;;;;;;20.92;65.49;100474.91;5054895;28;20045;-76
2022/11/03 21:28:04;;;;;;;21.15;15.05;;;;;;;20.92;65.18;100466.00;5054241;28;20057;-77
2022/11/03 21:30:34;;;;;;;22.50;15.73;;;;;;;20.91;65.32;100467.84;5054889;28;20041;-78
2022/11/03 21:33:02;;;;;;;21.40;14.00;;;;;;;20.93;65.22;100462.31;5054818;28;20057;-77
2022/11/03 21:35:45;;;;;;;;;;;;;;;;;;;;;
2022/11/03 21:38:20;;;;;;;22.83;15.00;;;;;;;20.90;65.34;100443.75;5054110;28;20041;-77
2022/11/03 21:40:49;;;;;;;20.40;15.38;;;;;;;20.92;65.34;100449.84;5053566;28;20053;-77
2022/11/03 21:46:10;;;;;;;20.00;14.52;;;;;;;20.92;65.17;100456.09;5054359;28;20056;-75
2022/11/03 21:51:24;;;;;;;22.35;14.50;;;;;;;20.92;65.13;100433.72;5054179;28;20060;-76
2022/11/03 21:53:51;;;;;;;23.80;16.88;;;;;;;20.92;64.99;100428.34;5042288;28;20046;-75
2022/11/03 21:56:24;;;;;;;23.92;15.77;;;;;;;20.92;65.18;100428.34;5039356;28;20045;-77
2022/11/03 21:58:52;;;;;;;19.58;14.15;;;;;;;20.92;64.96;100426.47;5050254;28;20404;-77
2022/11/03 22:01:19;;;;;;;19.88;14.93;;;;;;;20.92;64.93;100417.56;5035364;28;20053;-77